SMF weather

Finca La Frontera Airport
Aguaray, San Martín, Salta Province, Argentina

Public forecast

Using degrees Celsius for public forecast. Weather courtesy of forecast.io.

METAR (pilot weather report)

Closest report is Yacuiba Airport, 22.3 nm (41.4 km) WNW. Retrieved 2019/04/25 14:00 UTC (9 minutes ago):

SLYA 251400Z 21006KT 3000 -DZ BKN005 OVC070 15/15 Q1017

TAF (pilot weather forecast)

Forecast is more than 12 hours old.

Closest forecast is Yacuiba Airport, 22.3 nm (41.4 km) WNW. Retrieved 2019/04/05 18:30 UTC (20 days ago):

TAF SLYA 051630Z 0518/0618 21012KT 9999 SCT023 OVC070 TX20/0519Z TN12/0610Z BECMG 0602/0604 00000KT BKN070 BECMG 0614/0616 21010KT NSC